createdAt,value
2018-12-27T00:01:26.986Z,27.53
2018-12-27T00:10:10.014Z,28.33
2018-12-27T00:14:17.059Z,29.87
2018-12-27T00:18:24.072Z,28.20
2018-12-27T00:22:30.936Z,27.17
2018-12-27T00:26:37.926Z,26.93
2018-12-27T00:30:45.046Z,27.90
2018-12-27T00:34:52.244Z,27.43
2018-12-27T00:38:59.409Z,28.37
2018-12-27T00:43:06.571Z,26.13
2018-12-27T00:51:36.270Z,27.50
2018-12-27T01:00:15.382Z,28.30
2018-12-27T01:04:22.610Z,28.00
2018-12-27T01:08:29.742Z,30.23
2018-12-27T01:12:36.936Z,28.17
2018-12-27T01:16:44.162Z,28.93
2018-12-27T01:20:51.303Z,30.67
2018-12-27T01:24:58.522Z,25.93
2018-12-27T01:29:05.692Z,28.60
2018-12-27T01:33:18.678Z,29.23
2018-12-27T01:37:30.656Z,27.03
2018-12-27T01:41:37.742Z,28.37
2018-12-27T01:50:12.856Z,26.33
2018-12-27T01:54:20.059Z,25.23
2018-12-27T01:59:06.722Z,26.33
2018-12-27T02:03:14.021Z,27.17
2018-12-27T02:07:21.382Z,25.83
2018-12-27T02:11:30.176Z,27.70
2018-12-27T02:15:37.492Z,26.60
2018-12-27T02:19:46.614Z,25.83
2018-12-27T02:23:53.770Z,26.53
2018-12-27T02:28:01.457Z,27.77
2018-12-27T02:32:08.621Z,26.90
2018-12-27T02:40:48.044Z,25.70
2018-12-27T02:44:55.449Z,25.63
2018-12-27T02:49:04.742Z,26.03
2018-12-27T02:57:34.261Z,25.40
2018-12-27T03:01:41.411Z,24.13
2018-12-27T03:05:48.573Z,23.97
2018-12-27T03:09:56.021Z,26.87
2018-12-27T03:14:03.229Z,26.77
2018-12-27T03:18:50.766Z,27.67
2018-12-27T03:22:59.078Z,23.07
2018-12-27T03:27:06.483Z,27.53
2018-12-27T03:31:13.604Z,27.20
2018-12-27T03:35:21.256Z,27.67
2018-12-27T03:39:28.913Z,27.30
2018-12-27T03:43:36.212Z,25.17
2018-12-27T03:52:14.853Z,26.90
2018-12-27T03:56:21.993Z,25.97
2018-12-27T04:00:29.160Z,26.83
2018-12-27T04:04:36.214Z,25.90
2018-12-27T04:08:43.536Z,28.07
2018-12-27T04:12:50.762Z,26.93
2018-12-27T04:16:58.646Z,24.10
2018-12-27T04:34:45.726Z,23.13
2018-12-27T04:38:52.610Z,24.63
2018-12-27T04:43:39.311Z,24.70
2018-12-27T04:52:36.563Z,25.47
2018-12-27T04:56:43.964Z,23.83
2018-12-27T05:00:51.118Z,26.67
2018-12-27T05:04:58.033Z,27.57
2018-12-27T05:09:25.575Z,27.43
2018-12-27T05:13:32.600Z,28.03
2018-12-27T05:17:53.654Z,26.80
2018-12-27T05:21:53.580Z,26.83
2018-12-27T05:26:00.892Z,26.70
2018-12-27T05:34:31.219Z,30.77
2018-12-27T05:38:38.130Z,30.07
2018-12-27T05:42:45.161Z,31.17
2018-12-27T05:46:52.120Z,28.30
2018-12-27T05:51:00.203Z,30.37
2018-12-27T05:59:57.101Z,29.33
2018-12-27T06:04:11.658Z,29.60
2018-12-27T06:08:19.634Z,28.93
2018-12-27T06:12:41.619Z,27.13
2018-12-27T06:16:50.241Z,27.57
2018-12-27T06:21:14.278Z,26.30
2018-12-27T06:25:15.100Z,26.10
2018-12-27T06:33:50.003Z,27.40
2018-12-27T06:37:57.625Z,24.90
2018-12-27T06:42:04.678Z,26.50
2018-12-27T06:46:11.607Z,26.13
2018-12-27T06:50:18.677Z,27.13
2018-12-27T06:54:27.282Z,26.93
2018-12-27T06:58:37.708Z,27.40
2018-12-27T07:03:01.993Z,27.03
2018-12-27T07:07:08.881Z,26.13
2018-12-27T07:11:16.080Z,26.57
2018-12-27T07:15:23.125Z,28.00
2018-12-27T07:19:31.690Z,28.47
2018-12-27T07:23:46.872Z,29.47
2018-12-27T07:27:53.951Z,29.73
2018-12-27T07:32:20.142Z,29.67
2018-12-27T07:36:27.065Z,31.10
2018-12-27T07:40:34.039Z,31.23
2018-12-27T07:44:40.961Z,30.07
2018-12-27T07:48:48.105Z,32.20
2018-12-27T07:52:55.075Z,31.67
2018-12-27T07:57:01.999Z,29.73
2018-12-27T08:01:09.016Z,27.13
2018-12-27T08:09:38.710Z,35.40
2018-12-27T08:13:45.668Z,32.10
2018-12-27T08:22:18.588Z,35.97
2018-12-27T08:26:25.537Z,35.33
2018-12-27T08:30:32.527Z,33.87
2018-12-27T08:34:39.613Z,38.17
2018-12-27T08:38:46.542Z,35.70
2018-12-27T08:42:53.594Z,38.53
2018-12-27T08:47:00.629Z,36.80
2018-12-27T08:51:07.641Z,37.83
2018-12-27T08:55:14.637Z,39.27
2018-12-27T08:59:21.602Z,37.03
2018-12-27T09:03:28.568Z,40.60
2018-12-27T09:07:35.478Z,35.77
2018-12-27T09:11:42.498Z,37.27
2018-12-27T09:15:49.521Z,36.63
2018-12-27T09:19:56.522Z,37.57
2018-12-27T09:24:04.998Z,37.30
2018-12-27T09:28:31.768Z,38.47
2018-12-27T09:32:42.316Z,38.40
2018-12-27T09:41:20.979Z,37.93
2018-12-27T09:45:27.993Z,35.57
2018-12-27T09:49:34.982Z,34.63
2018-12-27T09:58:13.584Z,31.83
2018-12-27T10:02:20.644Z,31.67
2018-12-27T10:06:27.726Z,38.03
2018-12-27T10:10:34.762Z,32.87
2018-12-27T10:14:55.886Z,32.40
2018-12-27T10:18:55.743Z,33.60
2018-12-27T10:23:02.687Z,31.73
2018-12-27T10:27:09.602Z,33.17
2018-12-27T10:31:16.726Z,32.87
2018-12-27T10:35:23.780Z,30.97
2018-12-27T10:39:30.627Z,30.97
2018-12-27T10:52:26.835Z,31.27
2018-12-27T11:00:59.591Z,32.27
2018-12-27T11:05:06.712Z,29.00
2018-12-27T11:09:13.666Z,28.70
2018-12-27T11:17:38.981Z,28.03
2018-12-27T11:21:45.866Z,28.53
2018-12-27T11:26:11.595Z,28.80
2018-12-27T11:30:18.823Z,26.93
2018-12-27T11:34:25.927Z,24.73
2018-12-27T11:38:32.847Z,25.17
2018-12-27T11:42:39.900Z,24.57
2018-12-27T11:46:46.756Z,23.63
2018-12-27T11:50:53.776Z,24.77
2018-12-27T11:55:00.809Z,24.60
2018-12-27T11:59:07.825Z,25.07
2018-12-27T12:03:31.979Z,24.67
2018-12-27T12:07:42.548Z,24.77
2018-12-27T12:11:49.946Z,26.43
2018-12-27T12:15:56.985Z,25.37
2018-12-27T12:20:04.981Z,28.00
2018-12-27T12:24:12.123Z,27.93
2018-12-27T12:28:19.522Z,30.83
2018-12-27T12:32:26.842Z,32.20
2018-12-27T12:36:34.502Z,35.80
2018-12-27T12:45:13.918Z,36.40
2018-12-27T12:49:20.948Z,36.77
2018-12-27T12:57:54.348Z,36.23
2018-12-27T13:02:02.137Z,35.90
2018-12-27T13:06:09.409Z,36.10
2018-12-27T13:10:16.734Z,35.87
2018-12-27T13:14:23.806Z,35.73
2018-12-27T13:18:30.873Z,33.53
2018-12-27T13:22:38.173Z,31.53
2018-12-27T13:31:03.692Z,31.33
2018-12-27T13:35:10.970Z,31.33
2018-12-27T13:39:37.398Z,29.63
2018-12-27T13:43:44.627Z,29.00
2018-12-27T13:47:51.834Z,29.17
2018-12-27T13:51:58.846Z,30.17
2018-12-27T14:00:25.427Z,27.90
2018-12-27T14:04:32.428Z,28.63
2018-12-27T14:13:24.495Z,29.73
2018-12-27T14:17:31.392Z,31.40
2018-12-27T14:21:38.299Z,32.47
2018-12-27T14:26:04.181Z,34.03
2018-12-27T14:30:11.270Z,32.03
2018-12-27T14:34:18.154Z,32.03
2018-12-27T14:38:25.126Z,34.33
2018-12-27T14:42:32.052Z,31.33
2018-12-27T14:46:39.470Z,30.60
2018-12-27T14:55:04.932Z,32.20
2018-12-27T14:59:11.844Z,33.67
2018-12-27T15:03:18.869Z,31.80
2018-12-27T15:07:25.822Z,30.60
2018-12-27T15:11:32.831Z,29.93
2018-12-27T15:15:39.633Z,30.37
2018-12-27T15:19:47.545Z,29.93
2018-12-27T15:23:54.497Z,29.17
2018-12-27T15:28:02.712Z,28.60
2018-12-27T15:32:09.914Z,29.90
2018-12-27T15:36:17.150Z,29.67
2018-12-27T15:40:26.852Z,27.30
2018-12-27T15:44:52.887Z,27.37
2018-12-27T15:49:18.825Z,32.40
2018-12-27T15:53:25.852Z,26.47
2018-12-27T15:57:44.506Z,28.63
2018-12-27T16:02:11.958Z,27.83
2018-12-27T16:06:19.159Z,25.23
2018-12-27T16:10:26.332Z,26.33
2018-12-27T16:19:16.181Z,26.43
2018-12-27T16:23:42.220Z,24.40
2018-12-27T16:27:49.191Z,25.27
2018-12-27T16:31:56.282Z,24.30
2018-12-27T16:36:05.390Z,25.57
2018-12-27T16:40:12.431Z,25.97
2018-12-27T16:44:19.314Z,34.40
2018-12-27T16:48:26.300Z,27.23
2018-12-27T16:57:04.952Z,28.93
2018-12-27T17:01:11.945Z,30.87
2018-12-27T17:05:40.891Z,28.37
2018-12-27T17:09:49.137Z,29.60
2018-12-27T17:14:16.925Z,29.47
2018-12-27T17:18:24.083Z,30.27
2018-12-27T17:22:31.176Z,28.87
2018-12-27T17:26:57.411Z,29.77
2018-12-27T17:31:23.221Z,29.73
2018-12-27T17:35:30.400Z,27.63
2018-12-27T17:44:28.523Z,28.80
2018-12-27T17:48:35.724Z,28.67
2018-12-27T17:52:42.776Z,30.07
2018-12-27T17:56:49.673Z,29.27
2018-12-27T18:00:56.768Z,27.87
2018-12-27T18:05:03.857Z,27.67
2018-12-27T18:09:11.085Z,30.07
2018-12-27T18:13:18.142Z,29.47
2018-12-27T18:17:26.676Z,30.33
2018-12-27T18:26:16.639Z,29.30
2018-12-27T18:30:24.234Z,31.27
2018-12-27T18:34:31.303Z,30.67
2018-12-27T18:38:39.866Z,28.90
2018-12-27T18:42:54.584Z,29.57
2018-12-27T18:47:01.829Z,31.23
2018-12-27T18:51:11.231Z,31.30
2018-12-27T18:55:20.229Z,30.73
2018-12-27T18:59:45.993Z,31.67
2018-12-27T19:03:53.135Z,29.30
2018-12-27T19:08:00.344Z,29.03
2018-12-27T19:12:45.638Z,28.83
2018-12-27T19:16:52.708Z,28.47
2018-12-27T19:21:25.985Z,31.47
2018-12-27T19:25:52.369Z,28.70
2018-12-27T19:30:18.486Z,27.40
2018-12-27T19:34:25.417Z,26.97
2018-12-27T19:38:32.595Z,29.23
2018-12-27T19:42:39.892Z,29.90
2018-12-27T19:46:47.111Z,28.67
2018-12-27T19:55:26.201Z,29.20
2018-12-27T19:59:33.364Z,27.97
2018-12-27T20:03:40.262Z,28.77
2018-12-27T20:07:47.489Z,30.77
2018-12-27T20:11:54.792Z,32.30
2018-12-27T20:16:01.995Z,32.17
2018-12-27T20:20:10.054Z,34.10
2018-12-27T20:28:53.365Z,34.33
2018-12-27T20:33:00.477Z,36.37
2018-12-27T20:37:08.165Z,35.77
2018-12-27T20:41:17.071Z,40.23
2018-12-27T20:45:24.728Z,35.67
2018-12-27T20:49:52.894Z,36.77
2018-12-27T20:53:59.945Z,38.37
2018-12-27T21:02:46.804Z,36.23
2018-12-27T21:11:21.662Z,39.63
2018-12-27T21:15:28.613Z,35.87
2018-12-27T21:19:38.746Z,36.57
2018-12-27T21:24:05.963Z,36.80
2018-12-27T21:33:11.930Z,35.97
2018-12-27T21:37:19.708Z,37.77
2018-12-27T21:41:26.801Z,36.33
2018-12-27T21:45:36.661Z,38.13
2018-12-27T21:50:10.503Z,35.27
2018-12-27T21:58:56.691Z,39.07
2018-12-27T22:03:03.690Z,37.53
2018-12-27T22:07:25.439Z,39.03
2018-12-27T22:11:39.303Z,35.43
2018-12-27T22:15:46.485Z,39.93
2018-12-27T22:19:54.015Z,41.73
2018-12-27T22:24:01.040Z,39.27
2018-12-27T22:28:08.095Z,39.67
2018-12-27T22:32:15.183Z,43.00
2018-12-27T22:36:22.267Z,39.63
2018-12-27T22:40:29.470Z,39.63
2018-12-27T22:44:36.594Z,38.63
2018-12-27T22:49:25.643Z,39.93
2018-12-27T22:53:35.264Z,37.30
2018-12-27T22:57:42.665Z,38.87
2018-12-27T23:02:08.709Z,39.03
2018-12-27T23:06:16.769Z,37.33
2018-12-27T23:10:26.184Z,39.77
2018-12-27T23:14:33.272Z,39.27
2018-12-27T23:18:40.322Z,38.90
2018-12-27T23:22:47.415Z,36.00
2018-12-27T23:26:54.375Z,38.47
2018-12-27T23:31:01.524Z,39.23
2018-12-27T23:39:34.066Z,35.13
2018-12-27T23:43:42.830Z,33.60
2018-12-27T23:47:50.152Z,35.03
2018-12-27T23:51:57.071Z,34.77
